Time;durP1;ratioP1;P1;durP2;ratioP2;P2;SDS_P1;SDS_P2;PMS_P1;PMS_P2;Temp;Humidity;BMP_temperature;BMP_pressure;BME280_temperature;BME280_humidity;BME280_pressure;Samples;Min_cycle;Max_cycle;Signal;HPM_P1;HPM_P2
2022/05/16 00:02:07;;;;;;;9.98;3.83;;;12.60;99.90;;;;;;5010913;28;20061;-70
2022/05/16 00:04:36;;;;;;;7.03;4.05;;;12.60;99.90;;;;;;5027732;28;20469;-76
2022/05/16 00:07:01;;;;;;;9.18;3.60;;;12.50;99.90;;;;;;5029113;28;20076;-78
2022/05/16 00:09:27;;;;;;;6.25;3.63;;;12.50;99.90;;;;;;5027298;28;20068;-78
2022/05/16 00:11:53;;;;;;;7.35;4.07;;;12.40;99.90;;;;;;5027934;28;20033;-76
2022/05/16 00:14:19;;;;;;;8.75;4.03;;;12.40;99.90;;;;;;5026947;28;20060;-77
2022/05/16 00:16:45;;;;;;;7.18;3.97;;;12.50;99.90;;;;;;5030642;28;20025;-76
2022/05/16 00:19:11;;;;;;;7.70;4.20;;;12.60;99.90;;;;;;5031655;28;20109;-78
2022/05/16 00:21:37;;;;;;;7.07;4.07;;;12.70;99.90;;;;;;5031486;28;20033;-77
2022/05/16 00:24:02;;;;;;;9.48;4.35;;;12.60;99.90;;;;;;5032325;28;20026;-76
2022/05/16 00:26:28;;;;;;;8.57;4.32;;;12.70;99.90;;;;;;5029287;28;20064;-75
2022/05/16 00:28:54;;;;;;;10.80;4.75;;;12.60;99.90;;;;;;5031634;28;20057;-76
2022/05/16 00:31:19;;;;;;;12.50;4.93;;;12.60;99.90;;;;;;5030387;28;20053;-77
2022/05/16 00:33:45;;;;;;;12.35;5.20;;;12.70;99.90;;;;;;5032071;28;20040;-74
2022/05/16 00:36:11;;;;;;;7.18;4.30;;;12.70;99.90;;;;;;5030305;28;20523;-76
2022/05/16 00:38:37;;;;;;;8.38;4.70;;;12.50;99.90;;;;;;5031910;28;20054;-75
2022/05/16 00:41:04;;;;;;;11.23;5.45;;;12.50;99.90;;;;;;5030639;28;20052;-77
2022/05/16 00:43:52;;;;;;;8.43;4.30;;;12.40;99.90;;;;;;5012770;28;20044;-76
2022/05/16 00:46:19;;;;;;;7.75;3.97;;;12.20;99.90;;;;;;5018361;28;20502;-77
2022/05/16 00:48:45;;;;;;;9.02;4.18;;;12.20;99.90;;;;;;5013988;28;20504;-76
2022/05/16 00:51:17;;;;;;;7.28;4.25;;;12.20;99.90;;;;;;5029992;28;20033;-75
2022/05/16 00:53:44;;;;;;;7.88;4.10;;;12.30;99.90;;;;;;5031911;28;20030;-78
2022/05/16 00:56:10;;;;;;;8.98;3.97;;;12.30;99.90;;;;;;5030138;28;20029;-72
2022/05/16 00:58:40;;;;;;;5.60;3.55;;;12.30;99.90;;;;;;5030818;28;20410;-76
2022/05/16 01:04:47;;;;;;;6.77;3.67;;;12.20;99.90;;;;;;5012064;28;20474;-75
2022/05/16 01:06:39;;;;;;;12.25;4.15;;;12.20;99.90;;;;;;5030066;28;20036;-78
2022/05/16 01:09:04;;;;;;;7.35;4.22;;;12.10;99.90;;;;;;5013610;28;20041;-77
2022/05/16 01:11:30;;;;;;;5.32;3.50;;;12.10;99.90;;;;;;5029945;28;20080;-77
2022/05/16 01:13:56;;;;;;;7.00;4.18;;;12.10;99.90;;;;;;5028700;28;20033;-75
2022/05/16 01:16:22;;;;;;;6.10;3.88;;;12.10;99.90;;;;;;5029043;28;20041;-77
2022/05/16 01:18:48;;;;;;;11.93;4.65;;;12.00;99.90;;;;;;5030292;28;20113;-76
2022/05/16 01:21:22;;;;;;;7.38;3.90;;;11.90;99.90;;;;;;5010542;28;20029;-76
2022/05/16 01:24:10;;;;;;;6.78;3.97;;;11.90;99.90;;;;;;5039343;28;20056;-75
2022/05/16 01:26:37;;;;;;;7.88;4.25;;;11.80;99.90;;;;;;5049812;28;20044;-72
2022/05/16 01:29:04;;;;;;;7.25;4.25;;;11.80;99.90;;;;;;5028633;28;20038;-75
2022/05/16 01:31:30;;;;;;;8.32;4.05;;;11.90;99.90;;;;;;5027977;28;20022;-76
2022/05/16 01:33:56;;;;;;;10.05;4.28;;;11.90;99.90;;;;;;5031258;28;20033;-75
2022/05/16 01:36:22;;;;;;;7.25;4.35;;;11.80;99.90;;;;;;5028190;28;20063;-77
2022/05/16 01:38:48;;;;;;;8.40;4.32;;;11.70;99.90;;;;;;5010668;28;20523;-75
2022/05/16 01:41:17;;;;;;;8.13;4.45;;;11.70;99.90;;;;;;5010435;28;20041;-71
2022/05/16 01:43:49;;;;;;;8.68;4.30;;;11.70;99.90;;;;;;5030737;28;20075;-77
2022/05/16 01:46:40;;;;;;;7.22;4.05;;;11.60;99.90;;;;;;5010609;28;20493;-75
2022/05/16 01:49:08;;;;;;;10.68;4.40;;;11.50;99.90;;;;;;5030023;28;20112;-75
2022/05/16 01:51:34;;;;;;;6.70;4.38;;;11.30;99.90;;;;;;5027851;28;21121;-75
2022/05/16 01:54:03;;;;;;;6.75;4.32;;;11.40;99.90;;;;;;5030481;28;20381;-77
2022/05/16 01:56:33;;;;;;;5.85;4.10;;;11.50;99.90;;;;;;5028729;28;20041;-77
2022/05/16 01:59:00;;;;;;;10.32;5.13;;;11.50;99.90;;;;;;5030559;28;20061;-76
2022/05/16 02:01:26;;;;;;;8.18;4.25;;;11.50;99.90;;;;;;5024654;28;20025;-76
2022/05/16 02:03:51;;;;;;;6.10;4.03;;;11.50;99.90;;;;;;5027304;28;20363;-74
2022/05/16 02:06:17;;;;;;;5.95;4.20;;;11.50;99.90;;;;;;5028063;28;20052;-76
2022/05/16 02:08:43;;;;;;;9.45;4.47;;;11.40;99.90;;;;;;5030340;28;20688;-77
2022/05/16 02:11:09;;;;;;;7.40;4.28;;;11.50;99.90;;;;;;5029228;28;20520;-77
2022/05/16 02:13:37;;;;;;;10.35;4.57;;;11.40;99.90;;;;;;5027393;28;20047;-74
2022/05/16 02:16:03;;;;;;;15.48;5.10;;;11.40;99.90;;;;;;5027241;28;20033;-73
2022/05/16 02:18:29;;;;;;;9.75;5.00;;;11.40;99.90;;;;;;5029226;28;20041;-76
2022/05/16 02:24:38;;;;;;;7.05;4.18;;;11.30;99.90;;;;;;5011375;28;20031;-76
2022/05/16 02:26:25;;;;;;;9.63;4.53;;;11.30;99.90;;;;;;5028132;28;20090;-74
2022/05/16 02:28:51;;;;;;;6.28;4.25;;;11.40;99.90;;;;;;5030035;28;20775;-77
2022/05/16 02:31:19;;;;;;;8.88;4.35;;;11.50;99.90;;;;;;5026008;28;20516;-75
2022/05/16 02:33:46;;;;;;;10.52;4.03;;;11.60;99.90;;;;;;5040070;28;20021;-73
2022/05/16 02:36:12;;;;;;;7.15;4.18;;;11.70;99.90;;;;;;5031617;28;20132;-70
2022/05/16 02:38:37;;;;;;;6.20;4.10;;;11.70;99.90;;;;;;5029397;28;20550;-74
2022/05/16 02:41:03;;;;;;;10.15;4.78;;;11.70;99.90;;;;;;5025821;28;20029;-73
2022/05/16 02:43:28;;;;;;;8.13;4.75;;;11.70;99.90;;;;;;5026474;28;20065;-75
2022/05/16 02:45:54;;;;;;;8.73;4.70;;;11.60;99.90;;;;;;5028244;28;20071;-76
2022/05/16 02:48:20;;;;;;;9.45;4.88;;;11.50;99.90;;;;;;5027537;28;20033;-75
2022/05/16 02:50:45;;;;;;;8.35;4.78;;;11.40;99.90;;;;;;5029039;28;20136;-72
2022/05/16 02:53:11;;;;;;;7.07;4.55;;;11.30;99.90;;;;;;5029490;28;20087;-75
2022/05/16 02:55:37;;;;;;;9.32;4.85;;;11.30;99.90;;;;;;5027683;28;20025;-74
2022/05/16 02:58:02;;;;;;;10.48;5.15;;;11.20;99.90;;;;;;5028570;28;20056;-68
2022/05/16 03:00:28;;;;;;;7.40;4.47;;;11.20;99.90;;;;;;5026533;28;20059;-73
2022/05/16 03:02:54;;;;;;;7.65;4.50;;;11.10;99.90;;;;;;5028404;28;20151;-74
2022/05/16 03:05:20;;;;;;;7.30;4.35;;;11.10;99.90;;;;;;5027643;28;20029;-72
2022/05/16 03:07:46;;;;;;;7.78;4.65;;;11.10;99.90;;;;;;5029092;28;20033;-72
2022/05/16 03:10:15;;;;;;;7.78;4.47;;;11.10;99.90;;;;;;5029332;28;20041;-74
2022/05/16 03:12:43;;;;;;;7.85;4.50;;;11.20;99.90;;;;;;5029111;28;20091;-72
2022/05/16 03:15:09;;;;;;;7.13;4.63;;;11.20;99.90;;;;;;5029430;28;20144;-74
2022/05/16 03:17:35;;;;;;;9.85;4.55;;;11.30;99.90;;;;;;5028547;28;20038;-72
2022/05/16 03:20:02;;;;;;;10.70;5.05;;;11.40;99.90;;;;;;5027557;28;20046;-74
2022/05/16 03:22:28;;;;;;;8.73;4.78;;;11.40;99.90;;;;;;5010778;28;20026;-72
2022/05/16 03:24:53;;;;;;;7.00;4.35;;;11.50;99.90;;;;;;5028789;28;20025;-73
2022/05/16 03:27:19;;;;;;;9.88;4.60;;;11.60;99.90;;;;;;5028561;28;20462;-72
2022/05/16 03:29:46;;;;;;;6.15;4.40;;;11.70;99.90;;;;;;5029562;28;20032;-72
2022/05/16 03:32:12;;;;;;;9.73;4.68;;;11.70;99.90;;;;;;5029355;28;20109;-72
2022/05/16 03:34:37;;;;;;;8.32;4.18;;;11.60;99.90;;;;;;5027355;28;20030;-73
2022/05/16 03:37:03;;;;;;;7.05;4.53;;;11.60;99.90;;;;;;5028971;28;20501;-74
2022/05/16 03:42:13;;;;;;;9.32;5.03;;;11.60;99.90;;;;;;5029269;28;20064;-73
2022/05/16 03:44:39;;;;;;;8.35;5.07;;;11.40;99.90;;;;;;5028355;28;20943;-74
2022/05/16 03:47:05;;;;;;;6.78;4.32;;;11.40;99.90;;;;;;5029328;28;20036;-74
2022/05/16 03:49:31;;;;;;;6.75;4.45;;;11.40;99.90;;;;;;5009498;28;20497;-73
2022/05/16 03:51:57;;;;;;;10.20;4.50;;;11.40;99.90;;;;;;5032204;28;20076;-73
2022/05/16 03:54:23;;;;;;;9.07;4.75;;;11.50;99.90;;;;;;5031997;28;20075;-72
2022/05/16 03:56:48;;;;;;;7.30;4.45;;;11.50;99.90;;;;;;5014894;28;20037;-72
2022/05/16 03:59:14;;;;;;;6.55;4.30;;;11.60;99.90;;;;;;5031756;28;20453;-74
2022/05/16 04:01:39;;;;;;;6.28;4.22;;;11.60;99.90;;;;;;5032050;28;20032;-74
2022/05/16 04:04:05;;;;;;;13.57;4.88;;;11.70;99.90;;;;;;5032731;28;20033;-74
2022/05/16 04:06:34;;;;;;;8.13;4.70;;;11.70;99.90;;;;;;5031740;28;20034;-74
2022/05/16 04:09:00;;;;;;;8.30;4.78;;;11.70;99.90;;;;;;5032637;28;20029;-74
2022/05/16 04:11:26;;;;;;;11.43;4.90;;;11.70;99.90;;;;;;5031905;28;20096;-76
2022/05/16 04:13:52;;;;;;;10.65;5.15;;;11.80;99.90;;;;;;5031481;28;20523;-73
2022/05/16 04:16:18;;;;;;;9.13;4.90;;;11.90;99.90;;;;;;5032278;28;20038;-71
2022/05/16 04:18:44;;;;;;;6.80;4.72;;;11.90;99.90;;;;;;5031732;28;20400;-75
2022/05/16 04:21:10;;;;;;;10.15;4.47;;;11.90;99.90;;;;;;5032067;28;20033;-75
2022/05/16 04:23:36;;;;;;;11.18;4.70;;;11.90;99.90;;;;;;5031582;28;20105;-74
2022/05/16 04:26:02;;;;;;;6.75;4.32;;;11.80;99.90;;;;;;5031957;28;20112;-72
2022/05/16 04:28:28;;;;;;;7.45;4.90;;;11.80;99.90;;;;;;5012297;28;20036;-73
2022/05/16 04:30:54;;;;;;;7.57;4.40;;;11.90;99.90;;;;;;5032172;28;20034;-75
2022/05/16 04:33:20;;;;;;;6.97;4.35;;;11.90;99.90;;;;;;5031856;28;20422;-72
2022/05/16 04:35:45;;;;;;;8.95;4.90;;;11.80;99.90;;;;;;5031491;28;20061;-74
2022/05/16 04:38:11;;;;;;;9.27;4.40;;;11.80;99.90;;;;;;5031943;28;20076;-74
2022/05/16 04:42:40;;;;;;;7.80;4.65;;;11.80;99.90;;;;;;5031473;28;20038;-72
2022/05/16 04:43:25;;;;;;;7.22;3.97;;;11.90;99.90;;;;;;5029677;28;20435;-72
2022/05/16 04:45:51;;;;;;;8.70;5.47;;;12.00;99.90;;;;;;5031759;28;20083;-74
2022/05/16 04:48:17;;;;;;;11.27;4.82;;;12.10;99.90;;;;;;5031882;28;20470;-72
2022/05/16 04:50:43;;;;;;;8.35;4.53;;;12.20;99.90;;;;;;5031419;28;20025;-74
2022/05/16 04:53:08;;;;;;;10.38;5.28;;;12.30;99.90;;;;;;5032111;28;20033;-74
2022/05/16 04:55:34;;;;;;;9.50;5.13;;;12.30;99.90;;;;;;5030978;28;20039;-74
2022/05/16 04:58:00;;;;;;;6.18;4.55;;;12.30;99.90;;;;;;5030502;28;20747;-74
2022/05/16 05:00:27;;;;;;;8.18;4.70;;;12.30;99.90;;;;;;5013080;28;20025;-73
2022/05/16 05:02:53;;;;;;;6.90;4.53;;;12.40;99.90;;;;;;5031167;28;20029;-72
2022/05/16 05:05:19;;;;;;;9.27;4.70;;;12.30;99.90;;;;;;5031559;28;20036;-74
2022/05/16 05:07:46;;;;;;;9.10;4.88;;;12.30;99.90;;;;;;5030849;28;20433;-74
2022/05/16 05:15:43;;;;;;;8.27;4.97;;;12.50;99.90;;;;;;5030659;28;20627;-75
2022/05/16 05:18:09;;;;;;;8.75;4.47;;;12.60;99.90;;;;;;5031428;28;20033;-73
2022/05/16 05:20:35;;;;;;;9.13;4.70;;;12.50;99.90;;;;;;5029607;28;20079;-74
2022/05/16 05:23:02;;;;;;;13.02;4.50;;;12.60;99.90;;;;;;5031282;28;20032;-75
2022/05/16 05:25:28;;;;;;;9.15;4.75;;;12.60;99.90;;;;;;5029407;28;20022;-75
2022/05/16 05:27:54;;;;;;;7.25;4.80;;;12.60;99.90;;;;;;5030688;28;20470;-75
2022/05/16 05:30:23;;;;;;;9.95;5.18;;;12.70;99.90;;;;;;5030128;28;20450;-73
2022/05/16 05:32:49;;;;;;;11.38;4.82;;;12.80;99.90;;;;;;5028477;28;20036;-74
2022/05/16 05:35:16;;;;;;;8.68;5.38;;;12.70;99.90;;;;;;5031099;28;20466;-75
2022/05/16 05:37:42;;;;;;;8.15;4.95;;;12.70;99.90;;;;;;5030242;28;20099;-73
2022/05/16 05:40:09;;;;;;;6.72;4.50;;;12.80;99.90;;;;;;5013112;28;20050;-73
2022/05/16 05:42:35;;;;;;;8.20;4.93;;;12.90;99.90;;;;;;5030167;28;20026;-73
2022/05/16 05:45:02;;;;;;;9.23;4.82;;;13.00;99.90;;;;;;5030247;28;20029;-73
2022/05/16 05:47:28;;;;;;;6.97;4.57;;;13.20;99.90;;;;;;5011308;28;20580;-73
2022/05/16 05:49:54;;;;;;;9.75;4.75;;;13.30;99.90;;;;;;5030774;28;20029;-75
2022/05/16 05:52:20;;;;;;;9.82;5.68;;;13.40;99.90;;;;;;5030673;28;20030;-75
2022/05/16 05:54:47;;;;;;;10.40;5.05;;;13.50;99.90;;;;;;5029973;28;20036;-75
2022/05/16 05:57:14;;;;;;;8.45;4.70;;;13.60;99.90;;;;;;5030577;28;20079;-75
2022/05/16 05:59:41;;;;;;;7.57;4.90;;;13.80;99.90;;;;;;5029733;28;20113;-75
2022/05/16 06:02:08;;;;;;;7.15;4.93;;;13.90;99.90;;;;;;5029500;28;20401;-76
2022/05/16 06:04:34;;;;;;;11.57;4.95;;;13.90;99.90;;;;;;5029673;28;20029;-75
2022/05/16 06:07:00;;;;;;;9.27;4.93;;;13.80;99.90;;;;;;5012490;28;20091;-75
2022/05/16 06:09:27;;;;;;;9.55;4.82;;;13.90;99.90;;;;;;5029996;28;20041;-71
2022/05/16 06:11:53;;;;;;;8.73;5.40;;;13.90;99.90;;;;;;5030129;28;20037;-74
2022/05/16 06:14:19;;;;;;;9.38;5.10;;;13.90;99.90;;;;;;5029547;28;20038;-75
2022/05/16 06:16:44;;;;;;;11.10;5.20;;;14.00;99.90;;;;;;5010912;28;20845;-75
2022/05/16 06:19:10;;;;;;;7.40;4.75;;;14.00;99.90;;;;;;5029964;28;20072;-75
2022/05/16 06:21:36;;;;;;;9.18;4.82;;;14.10;99.90;;;;;;5029213;28;20029;-73
2022/05/16 06:24:03;;;;;;;7.80;4.90;;;14.10;99.90;;;;;;5030078;28;20033;-74
2022/05/16 06:26:28;;;;;;;9.88;5.05;;;14.10;99.90;;;;;;5029264;28;20079;-73
2022/05/16 06:28:56;;;;;;;13.60;4.63;;;14.20;99.90;;;;;;5029992;28;20021;-75
2022/05/16 06:31:21;;;;;;;7.07;4.50;;;14.30;99.90;;;;;;5029326;28;20044;-75
2022/05/16 06:33:47;;;;;;;8.30;5.20;;;14.40;99.90;;;;;;5028486;28;20120;-75
2022/05/16 06:36:13;;;;;;;6.82;4.70;;;14.40;99.90;;;;;;5029772;28;20074;-76
2022/05/16 06:38:39;;;;;;;7.97;4.55;;;14.40;99.90;;;;;;5028910;28;20068;-74
2022/05/16 06:41:05;;;;;;;11.55;5.60;;;14.50;99.90;;;;;;5029962;28;20025;-73
2022/05/16 06:43:32;;;;;;;9.27;4.63;;;14.60;99.90;;;;;;5029017;28;20455;-75
2022/05/16 06:45:59;;;;;;;9.55;5.00;;;14.80;99.90;;;;;;5028671;28;20055;-75
2022/05/16 06:48:25;;;;;;;9.10;5.55;;;14.90;99.90;;;;;;5029791;28;20021;-73
2022/05/16 06:50:51;;;;;;;10.60;5.82;;;15.10;99.90;;;;;;5028953;28;20124;-74
2022/05/16 06:53:21;;;;;;;10.15;5.13;;;15.30;99.90;;;;;;5029633;28;20394;-74
2022/05/16 06:55:46;;;;;;;11.75;5.78;;;15.50;99.90;;;;;;5028734;28;20439;-73
2022/05/16 06:58:12;;;;;;;13.48;6.07;;;15.60;99.90;;;;;;5027787;28;20529;-74
2022/05/16 07:00:38;;;;;;;9.82;5.53;;;16.00;99.90;;;;;;5028809;28;20116;-75
2022/05/16 07:03:04;;;;;;;11.88;5.50;;;16.40;99.90;;;;;;5028565;28;20033;-76
2022/05/16 07:05:31;;;;;;;9.50;5.20;;;16.70;99.90;;;;;;5028957;28;20032;-72
2022/05/16 07:07:57;;;;;;;12.70;5.72;;;17.10;99.90;;;;;;5029420;28;20033;-75
2022/05/16 07:10:24;;;;;;;10.60;5.03;;;17.30;99.90;;;;;;5027885;28;20440;-76
2022/05/16 07:12:51;;;;;;;10.98;5.00;;;17.50;99.90;;;;;;5028608;28;20028;-75
2022/05/16 07:15:17;;;;;;;9.38;5.07;;;17.60;99.90;;;;;;5029079;28;20029;-76
2022/05/16 07:17:43;;;;;;;9.15;5.00;;;17.60;99.90;;;;;;5028511;28;20056;-73
2022/05/16 07:20:10;;;;;;;10.82;5.00;;;17.70;99.90;;;;;;5029304;28;20458;-75
2022/05/16 07:22:41;;;;;;;12.15;5.43;;;17.90;99.90;;;;;;5028527;28;20099;-75
2022/05/16 07:25:07;;;;;;;8.90;5.00;;;17.90;99.90;;;;;;5029697;28;20034;-74
2022/05/16 07:30:17;;;;;;;12.02;5.85;;;17.80;99.90;;;;;;5033211;28;20041;-75
2022/05/16 07:32:45;;;;;;;14.40;6.53;;;17.60;99.90;;;;;;5032357;28;20029;-73
2022/05/16 07:35:14;;;;;;;15.10;6.13;;;17.40;99.90;;;;;;5033179;28;20025;-74
2022/05/16 07:37:40;;;;;;;11.68;6.28;;;17.20;99.90;;;;;;5032417;28;20045;-74
2022/05/16 07:40:08;;;;;;;9.68;5.85;;;17.00;99.90;;;;;;5032661;28;20057;-74
2022/05/16 07:42:35;;;;;;;7.45;6.10;;;16.80;99.90;;;;;;5031551;28;20041;-73
2022/05/16 07:45:01;;;;;;;12.68;6.85;;;16.70;99.90;;;;;;5032384;28;20037;-75
2022/05/16 07:47:30;;;;;;;9.23;6.25;;;16.60;99.90;;;;;;5033111;28;20040;-74
2022/05/16 07:49:56;;;;;;;10.00;5.90;;;16.40;99.90;;;;;;5030464;28;20099;-76
2022/05/16 07:52:23;;;;;;;11.15;6.22;;;16.40;99.90;;;;;;5033028;28;20037;-77
2022/05/16 07:54:49;;;;;;;8.77;5.88;;;16.50;99.90;;;;;;5032252;28;20026;-75
2022/05/16 07:57:14;;;;;;;10.48;6.90;;;16.60;99.90;;;;;;5032785;28;20026;-74
2022/05/16 07:59:41;;;;;;;11.93;6.53;;;16.80;99.90;;;;;;5032345;28;20045;-77
2022/05/16 08:02:08;;;;;;;12.55;6.72;;;16.90;99.90;;;;;;5032658;28;20056;-77
2022/05/16 08:04:33;;;;;;;13.70;7.43;;;17.00;99.90;;;;;;5030802;28;20034;-71
2022/05/16 08:06:59;;;;;;;16.88;7.47;;;17.00;99.90;;;;;;5032318;28;20029;-76
2022/05/16 08:12:11;;;;;;;14.65;7.32;;;16.90;99.90;;;;;;5032416;28;20048;-75
2022/05/16 08:14:38;;;;;;;13.93;7.07;;;16.90;99.90;;;;;;5031820;28;20029;-74
2022/05/16 08:17:04;;;;;;;13.82;7.53;;;16.90;99.90;;;;;;5032383;28;20044;-75
2022/05/16 08:19:33;;;;;;;15.70;7.07;;;17.00;99.90;;;;;;5028260;28;20044;-75
2022/05/16 08:21:59;;;;;;;13.85;6.50;;;17.10;99.90;;;;;;5031975;28;20091;-74
2022/05/16 08:24:25;;;;;;;10.23;6.10;;;17.20;99.90;;;;;;5032409;28;20041;-77
2022/05/16 08:26:51;;;;;;;13.25;6.68;;;17.30;99.90;;;;;;5031662;28;20033;-75
2022/05/16 08:29:17;;;;;;;10.55;6.38;;;17.50;99.90;;;;;;5032294;28;20037;-77
2022/05/16 08:31:42;;;;;;;8.25;5.38;;;17.80;99.90;;;;;;5031389;28;20057;-74
2022/05/16 08:34:08;;;;;;;11.13;5.93;;;18.30;99.90;;;;;;5029932;28;20083;-76
2022/05/16 08:42:08;;;;;;;10.63;5.75;;;19.60;99.90;;;;;;5031919;28;20501;-75
2022/05/16 08:44:46;;;;;;;15.40;6.28;;;19.80;99.90;;;;;;5031550;28;20486;-74
2022/05/16 08:47:21;;;;;;;9.63;5.97;;;20.10;99.90;;;;;;5014313;28;20037;-76
2022/05/16 08:49:54;;;;;;;8.02;5.13;;;20.70;99.90;;;;;;5031144;28;20614;-74
2022/05/16 08:52:20;;;;;;;9.15;5.53;;;20.60;99.90;;;;;;5031899;28;20021;-75
2022/05/16 08:54:53;;;;;;;65.70;9.40;;;20.60;99.90;;;;;;5030041;28;20390;-76
2022/05/16 08:57:41;;;;;;;22.23;6.32;;;20.60;99.90;;;;;;5031755;28;20033;-75
2022/05/16 09:00:11;;;;;;;11.02;6.35;;;20.70;99.90;;;;;;5031743;28;20111;-73
2022/05/16 09:02:40;;;;;;;9.13;5.07;;;20.60;99.90;;;;;;5031343;28;20123;-74
2022/05/16 09:05:37;;;;;;;8.13;5.15;;;20.80;99.90;;;;;;5030627;28;20756;-75
2022/05/16 09:08:07;;;;;;;12.43;6.25;;;20.90;99.90;;;;;;5008880;28;20053;-74
2022/05/16 09:10:32;;;;;;;8.38;5.45;;;21.00;99.90;;;;;;5031200;28;20082;-75
2022/05/16 09:13:29;;;;;;;12.45;5.68;;;21.10;99.90;;;;;;5030663;28;20129;-75
2022/05/16 09:16:30;;;;;;;9.25;5.45;;;21.30;99.90;;;;;;5012859;28;20060;-73
2022/05/16 09:19:32;;;;;;;14.00;5.65;;;21.60;99.90;;;;;;4975858;28;20046;-73
2022/05/16 09:22:17;;;;;;;9.10;4.78;;;21.70;99.90;;;;;;4993513;28;20025;-73
2022/05/16 09:24:53;;;;;;;8.38;4.82;;;21.80;99.90;;;;;;5010819;28;20038;-73
2022/05/16 09:30:16;;;;;;;9.68;4.15;;;21.70;99.90;;;;;;5011501;28;20033;-75
2022/05/16 09:32:48;;;;;;;7.97;4.40;;;21.50;99.90;;;;;;5024974;28;20037;-74
2022/05/16 09:35:25;;;;;;;9.35;3.72;;;21.40;99.90;;;;;;5031038;28;20264;-74
2022/05/16 09:37:55;;;;;;;10.65;4.00;;;21.40;99.90;;;;;;5030159;28;20470;-75
2022/05/16 09:41:07;;;;;;;8.32;3.92;;;21.30;99.90;;;;;;5030426;28;20144;-73
2022/05/16 09:43:39;;;;;;;13.98;3.72;;;21.30;99.90;;;;;;5022411;28;20033;-75
2022/05/16 09:46:32;;;;;;;8.13;3.88;;;21.20;99.90;;;;;;5030459;28;20024;-75
2022/05/16 09:49:25;;;;;;;6.00;3.92;;;21.20;99.90;;;;;;5028943;28;20021;-75
2022/05/16 09:51:53;;;;;;;6.13;3.97;;;21.10;99.90;;;;;;5028351;28;20481;-76
2022/05/16 09:54:36;;;;;;;5.75;4.10;;;21.10;99.90;;;;;;5012874;28;20045;-73
2022/05/16 09:57:16;;;;;;;9.13;4.32;;;21.00;99.90;;;;;;5029772;28;20119;-75
2022/05/16 09:59:50;;;;;;;7.75;3.83;;;20.90;99.90;;;;;;5012140;28;20043;-72
2022/05/16 10:02:24;;;;;;;9.50;4.20;;;20.90;99.90;;;;;;5030560;28;20029;-75
2022/05/16 10:04:56;;;;;;;6.30;3.95;;;20.90;99.90;;;;;;5026808;28;20033;-73
2022/05/16 10:07:31;;;;;;;12.27;4.20;;;20.90;99.90;;;;;;5027513;28;20038;-74
2022/05/16 10:09:57;;;;;;;9.80;4.32;;;20.90;99.90;;;;;;5029582;28;20348;-74
2022/05/16 10:12:26;;;;;;;6.93;4.07;;;20.90;99.90;;;;;;5030334;28;20030;-73
2022/05/16 10:14:52;;;;;;;12.88;4.43;;;21.00;99.90;;;;;;5011857;28;20393;-74
2022/05/16 10:17:38;;;;;;;8.70;4.03;;;21.00;99.90;;;;;;5030231;28;20405;-76
2022/05/16 10:20:10;;;;;;;7.28;4.70;;;21.10;99.90;;;;;;5028426;28;20037;-76
2022/05/16 10:22:36;;;;;;;6.95;3.97;;;21.20;99.90;;;;;;5010495;28;20018;-75
2022/05/16 10:25:06;;;;;;;9.43;4.22;;;21.10;99.90;;;;;;5009554;28;20037;-76
2022/05/16 10:27:35;;;;;;;6.88;3.72;;;21.20;99.90;;;;;;5010354;28;20749;-74
2022/05/16 10:30:10;;;;;;;8.10;4.40;;;21.20;99.90;;;;;;5009529;28;20036;-77
2022/05/16 10:35:30;;;;;;;10.40;4.88;;;21.40;99.90;;;;;;5030021;28;20044;-74
2022/05/16 10:37:59;;;;;;;6.90;4.15;;;21.60;99.90;;;;;;5029157;28;20128;-76
2022/05/16 10:40:41;;;;;;;10.52;4.55;;;21.60;99.90;;;;;;5028406;28;20049;-75
2022/05/16 10:43:29;;;;;;;8.90;4.18;;;21.80;99.90;;;;;;5011673;28;20067;-75
2022/05/16 10:46:08;;;;;;;7.05;4.57;;;22.30;99.90;;;;;;5028967;28;20017;-76
2022/05/16 10:48:55;;;;;;;14.10;4.18;;;22.40;99.90;;;;;;5029811;28;20025;-75
2022/05/16 10:51:46;;;;;;;14.25;5.03;;;22.70;99.90;;;;;;5029723;28;20037;-74
2022/05/16 10:54:27;;;;;;;7.65;4.18;;;22.60;99.90;;;;;;5029774;28;20037;-75
2022/05/16 10:57:13;;;;;;;7.53;4.05;;;22.40;99.90;;;;;;5028379;28;20033;-77
2022/05/16 11:00:21;;;;;;;5.85;4.22;;;22.30;99.90;;;;;;5028513;28;20037;-75
2022/05/16 11:03:26;;;;;;;9.15;4.45;;;22.20;99.90;;;;;;5014305;28;20111;-76
2022/05/16 11:06:13;;;;;;;8.45;4.43;;;22.10;99.90;;;;;;5028694;28;20033;-74
2022/05/16 11:08:46;;;;;;;11.95;4.45;;;22.10;99.90;;;;;;5029177;28;20034;-75
2022/05/16 11:11:25;;;;;;;8.98;4.45;;;22.10;99.90;;;;;;5029108;28;20029;-75
2022/05/16 11:14:08;;;;;;;8.57;4.28;;;22.20;99.90;;;;;;5028734;28;20115;-78
2022/05/16 11:16:38;;;;;;;7.85;4.13;;;22.20;99.90;;;;;;5028976;28;20025;-77
2022/05/16 11:19:13;;;;;;;7.25;4.07;;;22.40;99.90;;;;;;5009719;28;20033;-77
2022/05/16 11:22:07;;;;;;;7.63;4.50;;;22.40;99.90;;;;;;5029238;28;20037;-76
2022/05/16 11:24:53;;;;;;;8.60;4.07;;;22.50;99.90;;;;;;5029489;28;20042;-75
2022/05/16 11:27:21;;;;;;;7.55;4.43;;;22.50;99.90;;;;;;5029327;28;20041;-76
2022/05/16 11:30:19;;;;;;;9.18;4.30;;;22.20;99.90;;;;;;5028545;28;20030;-74
2022/05/16 11:32:48;;;;;;;7.30;4.50;;;22.00;99.90;;;;;;5026371;28;20025;-71
2022/05/16 11:35:43;;;;;;;10.07;4.88;;;22.00;99.90;;;;;;5029191;28;20041;-78
2022/05/16 11:38:17;;;;;;;8.15;5.00;;;22.00;99.90;;;;;;5028791;28;20052;-77
2022/05/16 11:41:13;;;;;;;8.32;4.40;;;22.10;99.90;;;;;;4989540;28;20046;-72
2022/05/16 11:43:46;;;;;;;8.45;4.70;;;22.30;99.90;;;;;;4989905;28;20076;-75
2022/05/16 11:46:40;;;;;;;9.65;5.10;;;22.50;99.90;;;;;;4989056;28;20475;-74
2022/05/16 11:49:15;;;;;;;8.73;5.13;;;22.20;99.90;;;;;;4989056;28;20026;-75
2022/05/16 11:52:14;;;;;;;8.48;4.95;;;21.90;99.90;;;;;;4989940;28;20545;-76
2022/05/16 11:54:49;;;;;;;10.80;4.35;;;21.70;99.90;;;;;;4989955;28;20034;-76
2022/05/16 12:03:15;;;;;;;13.55;4.28;;;19.50;99.90;;;;;;4986291;28;20390;-76
2022/05/16 12:05:53;;;;;;;15.13;4.50;;;18.70;99.90;;;;;;4989444;28;20456;-78
2022/05/16 12:08:18;;;;;;;12.27;4.35;;;18.30;99.90;;;;;;4989822;28;20368;-76
2022/05/16 12:10:55;;;;;;;12.05;4.68;;;18.00;99.90;;;;;;4989968;28;20035;-78
2022/05/16 12:13:27;;;;;;;15.10;4.75;;;17.90;99.90;;;;;;4993152;28;20113;-75
2022/05/16 12:16:28;;;;;;;13.40;5.03;;;17.60;99.90;;;;;;4992377;28;20042;-78
2022/05/16 12:19:26;;;;;;;14.43;4.85;;;17.30;99.90;;;;;;4965369;28;20141;-76
2022/05/16 12:22:06;;;;;;;14.52;4.85;;;17.20;99.90;;;;;;4972930;28;20038;-78
2022/05/16 12:24:50;;;;;;;17.10;4.82;;;17.10;99.90;;;;;;4973814;28;20030;-79
2022/05/16 12:27:16;;;;;;;11.73;4.38;;;16.90;99.90;;;;;;4972110;28;20031;-75
2022/05/16 12:29:49;;;;;;;16.33;4.63;;;16.70;99.90;;;;;;4973612;28;20031;-75
2022/05/16 12:32:43;;;;;;;14.07;5.05;;;16.60;99.90;;;;;;4981669;28;20460;-77
2022/05/16 12:35:34;;;;;;;17.95;5.50;;;16.50;99.90;;;;;;4990533;28;20034;-75
2022/05/16 12:38:00;;;;;;;10.48;5.30;;;16.60;99.90;;;;;;4991886;28;20383;-77
2022/05/16 12:40:51;;;;;;;24.88;6.43;;;16.80;99.90;;;;;;5008287;28;20085;-74
2022/05/16 12:43:52;;;;;;;16.02;5.82;;;16.80;99.90;;;;;;5012332;28;20104;-75
2022/05/16 12:46:45;;;;;;;16.10;6.28;;;16.80;99.90;;;;;;5012290;28;20034;-77
2022/05/16 12:49:23;;;;;;;14.63;6.60;;;16.60;99.90;;;;;;5011468;28;20060;-75
2022/05/16 12:52:20;;;;;;;15.23;5.88;;;16.50;99.90;;;;;;5011827;28;20037;-72
2022/05/16 12:54:52;;;;;;;13.75;6.35;;;16.40;99.90;;;;;;4995221;28;20045;-75
2022/05/16 12:57:47;;;;;;;9.35;4.82;;;16.20;99.90;;;;;;5011992;28;20113;-74
2022/05/16 13:00:23;;;;;;;18.15;5.40;;;16.10;99.90;;;;;;5011390;28;20533;-77
2022/05/16 13:03:07;;;;;;;14.05;5.20;;;15.90;99.90;;;;;;5011767;28;20028;-73
2022/05/16 13:06:01;;;;;;;11.93;4.45;;;15.90;99.90;;;;;;5011590;28;20061;-77
2022/05/16 13:08:36;;;;;;;8.90;3.45;;;16.00;99.90;;;;;;5011811;28;20049;-75
2022/05/16 13:11:13;;;;;;;10.20;4.40;;;15.90;99.90;;;;;;5009112;28;20030;-75
2022/05/16 13:13:56;;;;;;;16.63;3.55;;;15.90;99.90;;;;;;5011252;28;20037;-75
2022/05/16 13:16:33;;;;;;;9.60;3.60;;;15.80;99.90;;;;;;5011537;28;20033;-79
2022/05/16 13:19:07;;;;;;;10.07;3.67;;;15.80;99.90;;;;;;5010893;28;20034;-77
2022/05/16 13:22:00;;;;;;;7.40;3.35;;;15.80;99.90;;;;;;5011618;28;20076;-75
2022/05/16 13:24:27;;;;;;;10.73;3.40;;;15.90;99.90;;;;;;5011530;28;20034;-74
2022/05/16 13:29:41;;;;;;;6.50;3.08;;;16.00;99.90;;;;;;5011560;28;20045;-75
2022/05/16 13:32:17;;;;;;;18.20;3.58;;;16.10;99.90;;;;;;5010555;28;20030;-75
2022/05/16 13:34:53;;;;;;;10.27;3.08;;;16.10;99.90;;;;;;5011201;28;20105;-75
2022/05/16 13:37:23;;;;;;;7.85;2.50;;;16.10;99.90;;;;;;5011009;28;20034;-77
2022/05/16 13:39:54;;;;;;;9.10;3.03;;;16.10;99.90;;;;;;5023748;28;20064;-75
2022/05/16 13:42:21;;;;;;;4.97;2.60;;;16.20;99.90;;;;;;5027022;28;20401;-76
2022/05/16 13:44:48;;;;;;;9.27;3.20;;;16.20;99.90;;;;;;5030933;28;20026;-77